createdAt,value
2023-04-01T00:02:12.407Z,94461.22
2023-04-01T00:04:41.529Z,94461.50
2023-04-01T00:07:10.913Z,94466.45
2023-04-01T00:09:39.986Z,94471.59
2023-04-01T00:12:08.761Z,94467.41
2023-04-01T00:14:38.300Z,94467.02
2023-04-01T00:17:07.205Z,94466.67
2023-04-01T00:19:37.647Z,94473.92
2023-04-01T00:22:07.206Z,94467.27
2023-04-01T00:24:35.919Z,94470.11
2023-04-01T00:27:07.539Z,94471.06
2023-04-01T00:29:36.752Z,94467.05
2023-04-01T00:32:05.699Z,94468.59
2023-04-01T00:34:34.685Z,94461.92
2023-04-01T00:37:05.327Z,94470.67
2023-04-01T00:39:38.387Z,94463.27
2023-04-01T00:42:07.196Z,94457.55
2023-04-01T00:44:38.488Z,94454.52
2023-04-01T00:47:09.818Z,94449.37
2023-04-01T00:49:47.321Z,94440.42
2023-04-01T00:52:18.992Z,94437.19
2023-04-01T00:54:50.694Z,94434.36
2023-04-01T00:57:37.610Z,94426.34
2023-04-01T01:00:10.449Z,94428.63
2023-04-01T01:02:40.311Z,94412.66
2023-04-01T01:05:09.373Z,94410.35
2023-04-01T01:07:46.850Z,94404.64
2023-04-01T01:10:21.926Z,94407.88
2023-04-01T01:13:12.029Z,94402.00
2023-04-01T01:15:45.323Z,94394.41
2023-04-01T01:18:39.932Z,94391.75
2023-04-01T01:21:16.011Z,94393.83
2023-04-01T01:24:07.366Z,94385.26
2023-04-01T01:27:06.470Z,94386.78
2023-04-01T01:29:56.362Z,94385.47
2023-04-01T01:32:46.370Z,94357.14
2023-04-01T01:35:18.482Z,94366.26
2023-04-01T01:37:50.122Z,94368.34
2023-04-01T01:40:20.336Z,94364.16
2023-04-01T01:42:52.097Z,94362.46
2023-04-01T01:45:23.964Z,94365.12
2023-04-01T01:48:04.939Z,94359.79
2023-04-01T01:54:38.887Z,94361.69
2023-04-01T02:00:50.844Z,94349.70
2023-04-01T02:03:22.819Z,94346.30
2023-04-01T02:05:54.740Z,94358.26
2023-04-01T02:08:27.672Z,94351.81
2023-04-01T02:10:59.445Z,94336.20
2023-04-01T02:13:34.284Z,94348.17
2023-04-01T02:16:07.758Z,94329.34
2023-04-01T02:18:39.903Z,94339.99
2023-04-01T02:21:11.786Z,94339.03
2023-04-01T02:23:43.444Z,94326.64
2023-04-01T02:26:13.842Z,94320.17
2023-04-01T02:28:45.941Z,94321.28
2023-04-01T02:31:16.591Z,94327.77
2023-04-01T02:33:45.552Z,94323.20
2023-04-01T02:36:16.466Z,94330.84
2023-04-01T02:38:48.381Z,94337.85
2023-04-01T02:41:22.903Z,94328.49
2023-04-01T02:43:52.141Z,94331.57
2023-04-01T02:46:23.728Z,94337.63
2023-04-01T02:48:52.644Z,94346.39
2023-04-01T02:51:21.343Z,94350.55
2023-04-01T02:53:49.930Z,94354.36
2023-04-01T02:56:20.354Z,94351.34
2023-04-01T02:58:49.443Z,94356.63
2023-04-01T03:01:18.351Z,94348.25
2023-04-01T03:03:47.095Z,94367.50
2023-04-01T03:06:18.072Z,94376.33
2023-04-01T03:08:47.211Z,94373.48
2023-04-01T03:11:16.140Z,94374.62
2023-04-01T03:13:44.998Z,94373.88
2023-04-01T03:16:13.692Z,94373.24
2023-04-01T03:18:42.595Z,94371.55
2023-04-01T03:21:23.156Z,94372.45
2023-04-01T03:23:52.255Z,94377.95
2023-04-01T03:26:21.032Z,94375.13
2023-04-01T03:28:50.084Z,94380.04
2023-04-01T03:31:22.553Z,94358.80
2023-04-01T03:33:49.448Z,94385.62
2023-04-01T03:36:18.399Z,94381.64
2023-04-01T03:38:47.711Z,94375.19
2023-04-01T03:41:18.018Z,94375.58
2023-04-01T03:43:47.510Z,94372.92
2023-04-01T03:46:21.416Z,94364.52
2023-04-01T03:48:50.364Z,94351.41
2023-04-01T03:51:19.159Z,94347.60
2023-04-01T03:54:00.597Z,94327.05
2023-04-01T03:56:31.508Z,94308.78
2023-04-01T03:59:00.429Z,94299.45
2023-04-01T04:01:29.213Z,94292.07
2023-04-01T04:03:58.206Z,94280.47
2023-04-01T04:06:27.653Z,94267.33
2023-04-01T04:08:56.659Z,94271.70
2023-04-01T04:11:29.115Z,94271.52
2023-04-01T04:14:01.402Z,94258.78
2023-04-01T04:16:31.768Z,94255.17
2023-04-01T04:19:00.506Z,94253.25
2023-04-01T04:21:29.154Z,94246.22
2023-04-01T04:23:58.016Z,94246.41
2023-04-01T04:26:26.777Z,94252.10
2023-04-01T04:28:56.981Z,94249.21
2023-04-01T04:31:27.427Z,94234.56
2023-04-01T04:33:57.350Z,94219.33
2023-04-01T04:36:25.998Z,94220.09
2023-04-01T04:38:54.719Z,94220.30
2023-04-01T04:41:23.747Z,94217.45
2023-04-01T04:43:55.271Z,94215.16
2023-04-01T04:46:24.819Z,94216.64
2023-04-01T04:48:53.521Z,94215.52
2023-04-01T04:51:22.728Z,94216.67
2023-04-01T04:53:53.034Z,94218.23
2023-04-01T04:56:25.673Z,94201.53
2023-04-01T04:58:54.709Z,94192.97
2023-04-01T05:01:24.294Z,94197.95
2023-04-01T05:03:53.119Z,94184.04
2023-04-01T05:06:23.549Z,94194.27
2023-04-01T05:08:52.392Z,94203.30
2023-04-01T05:11:22.311Z,94200.11
2023-04-01T05:13:51.642Z,94181.47
2023-04-01T05:16:22.849Z,94172.34
2023-04-01T05:18:51.557Z,94165.16
2023-04-01T05:21:20.366Z,94167.80
2023-04-01T05:23:49.028Z,94172.41
2023-04-01T05:26:17.718Z,94156.80
2023-04-01T05:28:46.480Z,94144.58
2023-04-01T05:31:15.615Z,94142.46
2023-04-01T05:33:44.480Z,94145.88
2023-04-01T05:36:15.614Z,94151.33
2023-04-01T05:38:47.010Z,94154.58
2023-04-01T05:41:16.940Z,94163.49
2023-04-01T05:43:46.003Z,94163.75
2023-04-01T05:46:14.793Z,94171.71
2023-04-01T05:48:43.446Z,94167.63
2023-04-01T05:51:18.488Z,94155.17
2023-04-01T05:53:47.336Z,94155.77
2023-04-01T05:56:16.252Z,94150.95
2023-04-01T05:58:44.925Z,94140.83
2023-04-01T06:01:16.557Z,94139.67
2023-04-01T06:03:45.388Z,94136.25
2023-04-01T06:06:29.023Z,94142.02
2023-04-01T06:09:01.781Z,94143.08
2023-04-01T06:11:33.476Z,94146.91
2023-04-01T06:14:14.052Z,94141.87
2023-04-01T06:16:49.053Z,94132.53
2023-04-01T06:19:55.174Z,94142.41
2023-04-01T06:22:32.978Z,94139.83
2023-04-01T06:25:21.431Z,94144.06
2023-04-01T06:28:02.320Z,94143.48
2023-04-01T06:30:35.210Z,94142.81
2023-04-01T06:33:24.844Z,94145.81
2023-04-01T06:36:17.560Z,94138.59
2023-04-01T06:39:01.422Z,94129.28
2023-04-01T06:41:51.212Z,94130.38
2023-04-01T06:44:22.939Z,94119.73
2023-04-01T06:47:20.948Z,94111.11
2023-04-01T06:50:04.927Z,94113.57
2023-04-01T06:52:48.655Z,94117.24
2023-04-01T06:55:34.855Z,94115.64
2023-04-01T06:58:06.716Z,94098.91
2023-04-01T07:00:44.151Z,94085.68
2023-04-01T07:03:22.022Z,94084.16
2023-04-01T07:05:52.497Z,94083.79
2023-04-01T07:08:24.245Z,94089.39
2023-04-01T07:11:08.056Z,94098.03
2023-04-01T07:17:51.149Z,94089.33
2023-04-01T07:20:36.689Z,94070.23
2023-04-01T07:26:30.878Z,94071.56
2023-04-01T07:29:12.684Z,94079.56
2023-04-01T07:32:04.649Z,94086.37
2023-04-01T07:35:47.220Z,94092.25
2023-04-01T07:37:56.617Z,94091.76
2023-04-01T07:40:51.442Z,94087.84
2023-04-01T07:43:33.621Z,94081.45
2023-04-01T07:46:11.514Z,94087.73
2023-04-01T07:48:49.500Z,94072.02
2023-04-01T07:51:21.141Z,94029.02
2023-04-01T07:54:05.287Z,94084.92
2023-04-01T07:56:51.965Z,94069.00
2023-04-01T08:06:43.306Z,94059.94
2023-04-01T08:09:45.342Z,94063.53
2023-04-01T08:12:24.393Z,94050.47
2023-04-01T08:15:10.773Z,94052.38
2023-04-01T08:17:53.863Z,94042.70
2023-04-01T08:20:53.290Z,94040.79
2023-04-01T08:23:39.928Z,94033.13
2023-04-01T08:26:19.861Z,94027.91
2023-04-01T08:29:04.367Z,94021.11
2023-04-01T08:31:38.910Z,94017.55
2023-04-01T08:34:12.373Z,94011.80
2023-04-01T08:36:45.919Z,94007.23
2023-04-01T08:39:42.016Z,93991.48
2023-04-01T08:49:06.021Z,93953.19
2023-04-01T08:51:43.933Z,93947.84
2023-04-01T08:54:37.362Z,93954.74
2023-04-01T08:57:29.901Z,93872.97
2023-04-01T09:00:08.236Z,93946.75
2023-04-01T09:02:56.061Z,93945.28
2023-04-01T09:09:24.554Z,93965.08
2023-04-01T09:12:17.883Z,93936.98
2023-04-01T09:14:52.454Z,93958.59
2023-04-01T09:17:49.379Z,93894.63
2023-04-01T09:20:54.630Z,93956.42
2023-04-01T09:23:35.692Z,93952.19
2023-04-01T09:26:32.892Z,93945.94
2023-04-01T09:29:38.110Z,93940.97
2023-04-01T09:32:15.317Z,93939.23
2023-04-01T09:35:05.243Z,93921.24
2023-04-01T09:37:39.444Z,93920.95
2023-04-01T09:40:38.539Z,93921.03
2023-04-01T09:43:25.738Z,93916.77
2023-04-01T09:49:57.771Z,93898.43
2023-04-01T09:52:48.912Z,93895.14
2023-04-01T09:55:46.204Z,93885.03
2023-04-01T09:58:30.798Z,93879.41
2023-04-01T10:01:20.314Z,93880.06
2023-04-01T10:10:34.366Z,93863.64
2023-04-01T10:13:14.874Z,93864.91
2023-04-01T10:16:23.765Z,93866.94
2023-04-01T10:19:32.168Z,93861.03
2023-04-01T10:22:41.058Z,93850.87
2023-04-01T10:25:27.883Z,93854.19
2023-04-01T10:28:13.895Z,93855.57
2023-04-01T10:30:51.647Z,93851.31
2023-04-01T10:33:58.087Z,93836.70
2023-04-01T10:36:44.813Z,93833.64
2023-04-01T10:39:31.989Z,93847.02
2023-04-01T10:42:24.494Z,93843.52
2023-04-01T10:45:20.733Z,93836.69
2023-04-01T10:48:11.575Z,93830.85
2023-04-01T10:51:04.606Z,93819.34
2023-04-01T10:53:54.692Z,93806.66
2023-04-01T10:56:59.683Z,93810.45
2023-04-01T11:00:10.189Z,93816.66
2023-04-01T11:02:41.984Z,93804.92
2023-04-01T11:05:30.116Z,93795.20
2023-04-01T11:08:19.924Z,93793.88
2023-04-01T11:10:58.895Z,93788.14
2023-04-01T11:14:01.124Z,93788.98
2023-04-01T11:23:39.658Z,93783.91
2023-04-01T11:26:40.376Z,93787.84
2023-04-01T11:29:30.624Z,93792.12
2023-04-01T11:32:17.307Z,93806.39
2023-04-01T11:34:51.735Z,93853.62
2023-04-01T11:37:33.297Z,93845.13
2023-04-01T11:40:08.141Z,93880.09
2023-04-01T11:42:41.664Z,93897.17
2023-04-01T11:45:31.367Z,93899.08
2023-04-01T11:48:19.981Z,93933.48
2023-04-01T11:51:08.281Z,93970.48
2023-04-01T11:53:50.023Z,93988.30
2023-04-01T11:56:27.913Z,94025.85
2023-04-01T11:59:02.408Z,94044.64
2023-04-01T12:01:56.669Z,94059.61
2023-04-01T12:04:52.767Z,94048.72
2023-04-01T12:07:44.722Z,94057.33
2023-04-01T12:10:22.984Z,94067.27
2023-04-01T12:13:06.684Z,94043.81
2023-04-01T12:15:50.833Z,94030.30
2023-04-01T12:18:48.631Z,94025.13
2023-04-01T12:21:26.637Z,94019.72
2023-04-01T12:24:10.630Z,94025.13
2023-04-01T12:27:00.822Z,94031.13
2023-04-01T12:30:10.466Z,94038.57
2023-04-01T12:32:58.316Z,94053.46
2023-04-01T12:35:47.796Z,94058.80
2023-04-01T12:38:29.054Z,94063.44
2023-04-01T12:41:00.974Z,94061.34
2023-04-01T12:43:49.458Z,94060.48
2023-04-01T12:46:46.095Z,94060.75
2023-04-01T12:49:30.378Z,94046.23
2023-04-01T12:52:16.887Z,94042.33
2023-04-01T12:55:04.974Z,94046.02
2023-04-01T12:57:56.317Z,94046.88
2023-04-01T13:00:32.722Z,94038.32
2023-04-01T13:03:21.217Z,94024.50
2023-04-01T13:06:21.911Z,94010.25
2023-04-01T13:09:08.305Z,93993.39
2023-04-01T13:11:42.817Z,93985.69
2023-04-01T13:14:32.214Z,93989.30
2023-04-01T13:17:06.875Z,93968.20
2023-04-01T13:20:05.662Z,93968.99
2023-04-01T13:22:54.296Z,93961.84
2023-04-01T13:25:33.730Z,93982.61
2023-04-01T13:28:08.077Z,93966.48
2023-04-01T13:30:51.477Z,93958.13
2023-04-01T13:33:32.300Z,93955.36
2023-04-01T13:36:15.921Z,93943.78
2023-04-01T13:38:54.272Z,93942.90
2023-04-01T13:41:40.591Z,93926.33
2023-04-01T13:44:15.324Z,93931.38
2023-04-01T13:47:02.783Z,93927.88
2023-04-01T13:50:11.845Z,93916.83
2023-04-01T13:53:04.767Z,93909.77
2023-04-01T13:55:54.458Z,93909.41
2023-04-01T13:58:31.886Z,93907.11
2023-04-01T14:01:05.518Z,93909.42
2023-04-01T14:03:57.279Z,93907.85
2023-04-01T14:06:50.913Z,93912.19
2023-04-01T14:09:37.530Z,93888.24
2023-04-01T14:12:18.173Z,93883.19
2023-04-01T14:15:12.526Z,93889.58
2023-04-01T14:21:40.772Z,93887.19
2023-04-01T14:24:33.699Z,93873.84
2023-04-01T14:27:25.453Z,93868.08
2023-04-01T14:33:50.725Z,93842.22
2023-04-01T14:36:31.202Z,93847.61
2023-04-01T14:39:06.850Z,93782.58
2023-04-01T14:42:11.882Z,93840.03
2023-04-01T14:44:56.665Z,93767.11
2023-04-01T14:47:44.991Z,93845.48
2023-04-01T14:50:20.060Z,93849.83
2023-04-01T14:53:11.331Z,93850.48
2023-04-01T14:55:52.255Z,93849.66
2023-04-01T14:58:42.079Z,93846.94
2023-04-01T15:01:19.855Z,93853.56
2023-04-01T15:04:11.337Z,93843.98
2023-04-01T15:07:06.799Z,93851.86
2023-04-01T15:09:56.338Z,93865.28
2023-04-01T15:12:41.789Z,93863.42
2023-04-01T15:15:25.767Z,93865.34
2023-04-01T15:18:20.160Z,93859.22
2023-04-01T15:20:54.522Z,93858.02
2023-04-01T15:23:40.684Z,93868.52
2023-04-01T15:26:15.446Z,93874.48
2023-04-01T15:28:51.892Z,93872.24
2023-04-01T15:31:36.887Z,93877.92
2023-04-01T15:34:32.190Z,93871.58
2023-04-01T15:37:23.376Z,93857.35
2023-04-01T15:40:15.512Z,93870.84
2023-04-01T15:42:44.421Z,93879.32
2023-04-01T15:45:38.970Z,93889.43
2023-04-01T15:48:26.749Z,93866.03
2023-04-01T15:51:21.502Z,93868.22
2023-04-01T15:54:17.103Z,93989.03
2023-04-01T15:56:51.118Z,94080.08
2023-04-01T15:59:28.705Z,94101.23
2023-04-01T16:19:33.596Z,94119.72
2023-04-01T16:22:36.734Z,94114.61
2023-04-01T16:25:47.381Z,94132.05
2023-04-01T16:56:36.538Z,94166.25
2023-04-01T16:59:35.054Z,94166.83
2023-04-01T17:02:38.403Z,94164.91
2023-04-01T17:12:38.835Z,94182.91
2023-04-01T17:19:30.107Z,94196.92
2023-04-01T17:22:55.151Z,94196.56
2023-04-01T17:25:57.538Z,94212.84
2023-04-01T17:28:57.158Z,94219.27
2023-04-01T17:52:14.853Z,94228.84
2023-04-01T18:25:52.747Z,94299.12
2023-04-01T18:53:23.127Z,94296.27
2023-04-01T19:09:05.782Z,94323.62
2023-04-01T19:15:22.374Z,94323.51
2023-04-01T19:18:31.571Z,94332.28
2023-04-01T19:21:21.187Z,94331.94
2023-04-01T19:27:56.520Z,94319.38
2023-04-01T19:30:28.393Z,94330.57
2023-04-01T19:33:37.446Z,94335.30
2023-04-01T19:39:51.881Z,94345.89
2023-04-01T19:42:56.363Z,94350.40
2023-04-01T19:45:32.464Z,94361.05
2023-04-01T19:48:39.530Z,94363.33
2023-04-01T19:54:47.080Z,94372.47
2023-04-01T20:01:09.936Z,94377.45
2023-04-01T20:03:43.396Z,94376.63
2023-04-01T20:06:43.159Z,94371.09
2023-04-01T20:09:38.997Z,94381.52
2023-04-01T20:12:26.039Z,94374.30
2023-04-01T20:14:58.116Z,94381.69
2023-04-01T20:17:44.011Z,94383.67
2023-04-01T20:20:29.191Z,94381.69
2023-04-01T20:23:27.685Z,94386.30
2023-04-01T20:26:01.479Z,94384.40
2023-04-01T20:28:50.106Z,94390.28
2023-04-01T20:31:33.912Z,94385.17
2023-04-01T20:34:27.502Z,94392.80
2023-04-01T20:37:25.351Z,94388.07
2023-04-01T20:40:37.113Z,94393.17
2023-04-01T20:43:30.259Z,94393.19
2023-04-01T20:46:33.595Z,94401.76
2023-04-01T20:49:28.344Z,94329.50
2023-04-01T20:52:01.579Z,94399.67
2023-04-01T20:57:52.115Z,94409.45
2023-04-01T21:00:57.111Z,94401.25
2023-04-01T21:07:14.592Z,94400.06
2023-04-01T21:10:12.040Z,94406.27
2023-04-01T21:12:49.836Z,94415.99
2023-04-01T21:16:01.366Z,94420.72
2023-04-01T21:18:51.659Z,94420.66
2023-04-01T21:21:35.827Z,94426.61
2023-04-01T21:24:24.341Z,94425.77
2023-04-01T21:27:27.200Z,94437.80
2023-04-01T21:30:14.276Z,94431.41
2023-04-01T21:33:22.002Z,94427.62
2023-04-01T21:36:12.372Z,94428.72
2023-04-01T21:39:10.679Z,94424.91
2023-04-01T21:41:51.560Z,94430.22
2023-04-01T21:44:47.894Z,94427.75
2023-04-01T21:47:46.261Z,94433.16
2023-04-01T21:50:51.077Z,94428.98
2023-04-01T21:53:57.761Z,94429.31
2023-04-01T21:57:10.873Z,94436.89
2023-04-01T22:00:06.963Z,94433.36
2023-04-01T22:02:50.960Z,94430.22
2023-04-01T22:05:36.675Z,94427.91
2023-04-01T22:08:28.962Z,94430.13
2023-04-01T22:11:06.199Z,94423.57
2023-04-01T22:13:59.523Z,94429.56
2023-04-01T22:16:45.617Z,94417.14
2023-04-01T22:19:32.185Z,94422.52
2023-04-01T22:22:07.153Z,94405.28
2023-04-01T22:24:48.040Z,94417.15
2023-04-01T22:27:26.701Z,94410.94
2023-04-01T22:30:01.866Z,94409.87
2023-04-01T22:32:48.640Z,94420.60
2023-04-01T22:35:44.822Z,94410.52
2023-04-01T22:38:19.372Z,94409.89
2023-04-01T22:41:11.515Z,94409.30
2023-04-01T22:43:44.306Z,94416.24
2023-04-01T22:46:29.125Z,94422.88
2023-04-01T22:49:03.848Z,94422.76
2023-04-01T22:51:49.920Z,94422.00
2023-04-01T22:54:41.768Z,94430.72
2023-04-01T22:57:45.870Z,94434.56
2023-04-01T23:00:32.199Z,94433.12
2023-04-01T23:03:22.117Z,94441.95
2023-04-01T23:05:58.465Z,94438.72
2023-04-01T23:08:53.564Z,94437.78
2023-04-01T23:11:34.898Z,94442.66
2023-04-01T23:14:32.301Z,94437.17
2023-04-01T23:17:09.501Z,94432.16
2023-04-01T23:20:13.742Z,94438.61
2023-04-01T23:23:08.617Z,94442.09
2023-04-01T23:25:41.711Z,94444.87
2023-04-01T23:28:37.954Z,94451.38
2023-04-01T23:31:02.584Z,94442.70
2023-04-01T23:33:34.445Z,94451.38
2023-04-01T23:36:14.053Z,94454.48
2023-04-01T23:38:45.898Z,94457.38
2023-04-01T23:41:31.939Z,94451.76
2023-04-01T23:44:06.776Z,94450.85
2023-04-01T23:46:38.093Z,94443.67
2023-04-01T23:49:12.795Z,94446.46
2023-04-01T23:51:45.219Z,94447.53
2023-04-01T23:54:37.814Z,94451.69
2023-04-01T23:57:05.783Z,94452.05
2023-04-01T23:59:51.848Z,94446.58
